createdAt,value
2023-01-06T00:00:16.945Z,97548.16
2023-01-06T00:01:19.996Z,97542.31
2023-01-06T00:02:21.986Z,97537.75
2023-01-06T00:03:23.896Z,97535.00
2023-01-06T00:04:25.813Z,97539.56
2023-01-06T00:05:29.349Z,97536.50
2023-01-06T00:06:31.812Z,97537.13
2023-01-06T00:07:33.837Z,97532.59
2023-01-06T00:08:36.164Z,97538.75
2023-01-06T00:09:38.923Z,97531.63
2023-01-06T00:10:40.841Z,97527.69
2023-01-06T00:11:42.764Z,97528.34
2023-01-06T00:12:48.528Z,97530.59
2023-01-06T00:13:50.377Z,97528.97
2023-01-06T00:14:52.392Z,97528.16
2023-01-06T00:15:55.756Z,97528.16
2023-01-06T00:16:57.999Z,97522.97
2023-01-06T00:17:59.803Z,97522.81
2023-01-06T00:19:01.729Z,97526.06
2023-01-06T00:20:04.050Z,97524.91
2023-01-06T00:21:06.411Z,97527.50
2023-01-06T00:22:08.248Z,97516.94
2023-01-06T00:23:10.372Z,97525.38
2023-01-06T00:24:12.301Z,97526.34
2023-01-06T00:25:14.221Z,97529.94
2023-01-06T00:26:16.105Z,97531.88
2023-01-06T00:27:17.919Z,97537.88
2023-01-06T00:28:19.862Z,97535.44
2023-01-06T00:29:21.821Z,97532.84
2023-01-06T00:30:23.677Z,97527.19
2023-01-06T00:31:25.568Z,97519.38
2023-01-06T00:32:27.381Z,97534.97
2023-01-06T00:33:29.367Z,97528.97
2023-01-06T00:34:31.304Z,97521.66
2023-01-06T00:35:33.223Z,97523.91
2023-01-06T00:36:35.052Z,97535.13
2023-01-06T00:37:36.978Z,97523.56
2023-01-06T00:38:39.257Z,97522.59
2023-01-06T00:39:41.232Z,97527.28
2023-01-06T00:40:43.042Z,97528.56
2023-01-06T00:42:03.331Z,97523.19
2023-01-06T00:43:05.534Z,97521.06
2023-01-06T00:44:07.467Z,97520.72
2023-01-06T00:45:09.537Z,97515.53
2023-01-06T00:46:11.399Z,97528.78
2023-01-06T00:47:14.459Z,97529.78
2023-01-06T00:48:16.249Z,97526.84
2023-01-06T00:49:18.093Z,97523.28
2023-01-06T00:50:20.077Z,97520.84
2023-01-06T00:51:21.882Z,97531.06
2023-01-06T00:52:23.686Z,97525.06
2023-01-06T00:53:25.484Z,97524.25
2023-01-06T00:54:27.317Z,97519.22
2023-01-06T00:55:30.409Z,97514.53
2023-01-06T00:56:32.490Z,97518.28
2023-01-06T00:57:34.407Z,97523.00
2023-01-06T00:58:36.375Z,97522.53
2023-01-06T00:59:38.254Z,97525.13
2023-01-06T01:00:40.205Z,97515.72
2023-01-06T01:01:42.869Z,97517.69
2023-01-06T01:02:44.857Z,97520.47
2023-01-06T01:03:46.795Z,97530.38
2023-01-06T01:04:48.720Z,97526.34
2023-01-06T01:05:50.584Z,97525.53
2023-01-06T01:06:53.052Z,97525.06
2023-01-06T01:07:55.515Z,97515.03
2023-01-06T01:08:58.247Z,97518.59
2023-01-06T01:10:00.167Z,97528.97
2023-01-06T01:11:09.760Z,97534.81
2023-01-06T01:12:12.986Z,97536.44
2023-01-06T01:13:14.812Z,97534.16
2023-01-06T01:14:17.614Z,97532.09
2023-01-06T01:15:19.478Z,97527.53
2023-01-06T01:16:21.224Z,97527.53
2023-01-06T01:17:27.599Z,97532.56
2023-01-06T01:18:29.488Z,97540.00
2023-01-06T01:19:31.680Z,97536.09
2023-01-06T01:20:34.185Z,97538.38
2023-01-06T01:21:36.046Z,97543.09
2023-01-06T01:22:37.905Z,97536.44
2023-01-06T01:23:39.707Z,97542.97
2023-01-06T01:24:41.658Z,97551.88
2023-01-06T01:25:43.451Z,97540.69
2023-01-06T01:26:45.405Z,97536.94
2023-01-06T01:27:47.233Z,97539.84
2023-01-06T01:28:49.084Z,97545.03
2023-01-06T01:29:50.954Z,97545.53
2023-01-06T01:30:59.142Z,97538.38
2023-01-06T01:32:01.198Z,97534.50
2023-01-06T01:33:03.049Z,97542.09
2023-01-06T01:34:04.925Z,97543.56
2023-01-06T01:35:07.040Z,97540.59
2023-01-06T01:36:09.716Z,97540.09
2023-01-06T01:37:11.594Z,97537.16
2023-01-06T01:38:13.413Z,97539.25
2023-01-06T01:39:16.753Z,97541.53
2023-01-06T01:40:18.557Z,97548.97
2023-01-06T01:41:22.329Z,97540.84
2023-01-06T01:42:24.164Z,97543.28
2023-01-06T01:43:26.022Z,97548.91
2023-01-06T01:44:46.453Z,97536.56
2023-01-06T01:45:51.282Z,97535.41
2023-01-06T01:46:53.247Z,97548.25
2023-01-06T01:47:57.877Z,97552.50
2023-01-06T01:49:02.936Z,97545.97
2023-01-06T01:50:17.551Z,97550.88
2023-01-06T01:51:21.112Z,97546.19
2023-01-06T01:52:24.117Z,97557.78
2023-01-06T01:53:28.951Z,97553.59
2023-01-06T01:54:33.203Z,97558.69
2023-01-06T01:55:36.457Z,97560.63
2023-01-06T01:56:43.067Z,97559.03
2023-01-06T01:57:47.632Z,97556.94
2023-01-06T01:58:54.233Z,97556.31
2023-01-06T01:59:56.329Z,97559.22
2023-01-06T02:00:58.297Z,97559.06
2023-01-06T02:02:01.120Z,97553.38
2023-01-06T02:03:04.388Z,97556.00
2023-01-06T02:04:06.566Z,97559.41
2023-01-06T02:05:08.981Z,97566.06
2023-01-06T02:06:14.314Z,97555.81
2023-01-06T02:07:16.163Z,97556.63
2023-01-06T02:08:30.344Z,97554.22
2023-01-06T02:09:34.891Z,97555.69
2023-01-06T02:10:36.903Z,97551.81
2023-01-06T02:11:39.629Z,97554.41
2023-01-06T02:12:42.219Z,97553.59
2023-01-06T02:13:47.872Z,97562.53
2023-01-06T02:14:49.731Z,97556.00
2023-01-06T02:15:55.003Z,97566.41
2023-01-06T02:17:15.609Z,97560.25
2023-01-06T02:18:34.939Z,97556.50
2023-01-06T02:19:52.017Z,97560.53
2023-01-06T02:21:09.740Z,97557.31
2023-01-06T02:22:27.676Z,97546.91
2023-01-06T02:23:47.583Z,97541.56
2023-01-06T02:25:04.711Z,97541.91
2023-01-06T02:26:12.710Z,97544.03
2023-01-06T02:27:14.512Z,97541.25
2023-01-06T02:28:19.284Z,97546.63
2023-01-06T02:29:21.093Z,97551.19
2023-01-06T02:30:32.009Z,97546.50
2023-01-06T02:31:49.173Z,97552.66
2023-01-06T02:33:00.306Z,97550.56
2023-01-06T02:34:13.975Z,97551.72
2023-01-06T02:35:34.643Z,97546.97
2023-01-06T02:36:36.424Z,97546.50
2023-01-06T02:37:53.518Z,97557.53
2023-01-06T02:39:09.530Z,97552.78
2023-01-06T02:40:11.439Z,97549.69
2023-01-06T02:41:13.351Z,97556.19
2023-01-06T02:42:19.674Z,97550.97
2023-01-06T02:43:24.566Z,97552.75
2023-01-06T02:44:32.898Z,97549.34
2023-01-06T02:45:37.739Z,97549.34
2023-01-06T02:46:54.913Z,97553.38
2023-01-06T02:48:06.146Z,97543.00
2023-01-06T02:49:18.181Z,97546.25
2023-01-06T02:50:34.976Z,97536.84
2023-01-06T02:51:37.791Z,97530.00
2023-01-06T02:52:42.622Z,97531.66
2023-01-06T02:54:10.793Z,97528.25
2023-01-06T02:55:21.757Z,97536.50
2023-01-06T02:56:25.729Z,97539.72
2023-01-06T02:57:36.226Z,97532.75
2023-01-06T02:58:47.223Z,97535.53
2023-01-06T03:00:07.438Z,97542.03
2023-01-06T03:01:15.436Z,97531.00
2023-01-06T03:02:18.956Z,97536.38
2023-01-06T03:03:23.363Z,97523.22
2023-01-06T03:04:32.013Z,97528.25
2023-01-06T03:05:36.448Z,97530.66
2023-01-06T03:06:45.081Z,97537.47
2023-01-06T03:07:48.071Z,97526.75
2023-01-06T03:08:51.373Z,97524.63
2023-01-06T03:09:54.001Z,97525.44
2023-01-06T03:10:57.383Z,97528.69
2023-01-06T03:12:01.055Z,97520.91
2023-01-06T03:13:26.229Z,97534.34
2023-01-06T03:14:31.613Z,97528.97
2023-01-06T03:15:33.527Z,97537.41
2023-01-06T03:16:35.365Z,97536.44
2023-01-06T03:17:37.591Z,97524.25
2023-01-06T03:18:41.562Z,97532.84
2023-01-06T03:19:44.237Z,97529.63
2023-01-06T03:20:47.847Z,97538.41
2023-01-06T03:21:51.538Z,97534.16
2023-01-06T03:22:53.365Z,97541.97
2023-01-06T03:23:55.480Z,97542.59
2023-01-06T03:24:57.306Z,97539.84
2023-01-06T03:25:59.408Z,97538.69
2023-01-06T03:27:01.403Z,97536.09
2023-01-06T03:28:03.272Z,97524.91
2023-01-06T03:29:10.053Z,97528.28
2023-01-06T03:30:12.664Z,97521.50
2023-01-06T03:31:22.015Z,97528.28
2023-01-06T03:32:40.746Z,97517.25
2023-01-06T03:33:42.529Z,97521.00
2023-01-06T03:35:03.804Z,97521.97
2023-01-06T03:36:13.999Z,97516.78
2023-01-06T03:37:21.533Z,97515.97
2023-01-06T03:38:47.640Z,97517.66
2023-01-06T03:39:55.635Z,97515.69
2023-01-06T03:41:05.057Z,97516.69
2023-01-06T03:42:36.531Z,97514.75
2023-01-06T03:43:41.408Z,97516.03
2023-01-06T03:44:53.662Z,97512.47
2023-01-06T03:46:14.108Z,97512.78
2023-01-06T03:47:20.063Z,97514.56
2023-01-06T03:48:39.591Z,97513.09
2023-01-06T03:49:52.187Z,97515.91
2023-01-06T03:50:57.011Z,97513.47
2023-01-06T03:52:01.764Z,97512.31
2023-01-06T03:53:22.194Z,97512.16
2023-01-06T03:54:30.115Z,97513.59
2023-01-06T03:55:33.917Z,97516.34
2023-01-06T03:56:39.482Z,97519.63
2023-01-06T03:57:44.542Z,97511.81
2023-01-06T03:58:49.195Z,97511.63
2023-01-06T03:59:54.333Z,97514.06
2023-01-06T04:00:56.358Z,97515.69
2023-01-06T04:01:58.865Z,97519.75
2023-01-06T04:03:01.003Z,97515.34
2023-01-06T04:04:03.614Z,97514.38
2023-01-06T04:05:09.795Z,97513.38
2023-01-06T04:06:11.648Z,97515.03
2023-01-06T04:07:13.578Z,97508.66
2023-01-06T04:08:15.453Z,97512.06
2023-01-06T04:09:17.348Z,97503.94
2023-01-06T04:10:20.673Z,97502.94
2023-01-06T04:11:41.143Z,97500.19
2023-01-06T04:12:43.061Z,97496.59
2023-01-06T04:13:44.909Z,97500.03
2023-01-06T04:14:46.791Z,97496.59
2023-01-06T04:15:48.614Z,97491.75
2023-01-06T04:16:50.450Z,97500.50
2023-01-06T04:17:52.735Z,97501.50
2023-01-06T04:18:54.601Z,97502.31
2023-01-06T04:19:56.493Z,97504.75
2023-01-06T04:20:58.310Z,97501.97
2023-01-06T04:22:00.185Z,97497.59
2023-01-06T04:23:02.089Z,97501.16
2023-01-06T04:24:04.117Z,97504.59
2023-01-06T04:25:06.783Z,97500.50
2023-01-06T04:26:08.617Z,97497.09
2023-01-06T04:27:10.407Z,97500.50
2023-01-06T04:28:12.149Z,97496.16
2023-01-06T04:29:14.026Z,97502.94
2023-01-06T04:30:15.871Z,97501.16
2023-01-06T04:31:17.921Z,97505.38
2023-01-06T04:32:19.815Z,97506.19
2023-01-06T04:33:21.541Z,97502.78
2023-01-06T04:34:23.328Z,97507.97
2023-01-06T04:35:25.219Z,97503.94
2023-01-06T04:36:27.107Z,97503.94
2023-01-06T04:37:29.001Z,97500.34
2023-01-06T04:38:30.863Z,97499.38
2023-01-06T04:39:32.755Z,97502.78
2023-01-06T04:40:34.648Z,97497.59
2023-01-06T04:41:36.486Z,97497.59
2023-01-06T04:42:56.836Z,97493.19
2023-01-06T04:43:58.684Z,97501.00
2023-01-06T04:45:00.540Z,97494.81
2023-01-06T04:46:02.430Z,97500.81
2023-01-06T04:47:04.473Z,97499.66
2023-01-06T04:48:06.937Z,97503.25
2023-01-06T04:49:08.897Z,97501.97
2023-01-06T04:50:11.203Z,97500.34
2023-01-06T04:51:13.218Z,97495.16
2023-01-06T04:52:16.180Z,97499.06
2023-01-06T04:53:18.037Z,97511.09
2023-01-06T04:54:19.952Z,97502.47
2023-01-06T04:55:21.869Z,97502.31
2023-01-06T04:56:25.923Z,97497.91
2023-01-06T04:57:28.598Z,97507.34
2023-01-06T04:58:30.443Z,97503.94
2023-01-06T04:59:32.232Z,97505.53
2023-01-06T05:00:34.113Z,97510.56
2023-01-06T05:01:37.141Z,97499.38
2023-01-06T05:02:39.200Z,97505.53
2023-01-06T05:03:41.805Z,97503.94
2023-01-06T05:04:47.881Z,97502.31
2023-01-06T05:05:50.012Z,97504.28
2023-01-06T05:06:51.890Z,97505.06
2023-01-06T05:07:54.997Z,97516.28
2023-01-06T05:08:56.856Z,97504.28
2023-01-06T05:09:58.646Z,97501.03
2023-01-06T05:11:05.529Z,97501.03
2023-01-06T05:12:07.559Z,97500.88
2023-01-06T05:13:09.341Z,97507.22
2023-01-06T05:14:11.265Z,97498.78
2023-01-06T05:15:13.107Z,97501.38
2023-01-06T05:16:19.375Z,97497.78
2023-01-06T05:17:21.139Z,97509.81
2023-01-06T05:18:23.095Z,97504.63
2023-01-06T05:19:25.020Z,97501.38
2023-01-06T05:20:26.941Z,97505.44
2023-01-06T05:21:32.250Z,97506.88
2023-01-06T05:22:34.580Z,97504.28
2023-01-06T05:23:37.055Z,97498.28
2023-01-06T05:24:39.005Z,97499.22
2023-01-06T05:25:40.791Z,97503.63
2023-01-06T05:26:42.652Z,97501.03
2023-01-06T05:27:44.483Z,97497.97
2023-01-06T05:28:46.667Z,97494.56
2023-01-06T05:29:48.535Z,97503.97
2023-01-06T05:30:50.641Z,97496.19
2023-01-06T05:31:52.524Z,97494.22
2023-01-06T05:32:54.380Z,97494.88
2023-01-06T05:33:56.182Z,97487.88
2023-01-06T05:34:58.028Z,97493.88
2023-01-06T05:36:00.180Z,97496.16
2023-01-06T05:37:01.984Z,97501.16
2023-01-06T05:38:03.842Z,97501.78
2023-01-06T05:39:05.664Z,97497.59
2023-01-06T05:40:07.791Z,97500.19
2023-01-06T05:41:10.022Z,97495.78
2023-01-06T05:42:11.806Z,97498.38
2023-01-06T05:43:13.592Z,97509.78
2023-01-06T05:44:15.594Z,97496.94
2023-01-06T05:45:17.519Z,97499.72
2023-01-06T05:46:19.463Z,97506.72
2023-01-06T05:47:21.384Z,97503.31
2023-01-06T05:48:27.015Z,97502.66
2023-01-06T05:49:28.904Z,97506.22
2023-01-06T05:50:30.777Z,97507.22
2023-01-06T05:51:32.597Z,97505.25
2023-01-06T05:52:34.470Z,97505.91
2023-01-06T05:53:37.332Z,97507.50
2023-01-06T05:54:39.305Z,97509.94
2023-01-06T05:55:41.140Z,97504.91
2023-01-06T05:56:42.925Z,97507.50
2023-01-06T05:57:44.811Z,97512.69
2023-01-06T05:58:48.068Z,97508.31
2023-01-06T05:59:50.268Z,97504.75
2023-01-06T06:00:52.134Z,97505.53
2023-01-06T06:01:53.960Z,97509.13
2023-01-06T06:02:56.050Z,97512.69
2023-01-06T06:03:57.986Z,97516.09
2023-01-06T06:04:59.764Z,97516.28
2023-01-06T06:06:05.030Z,97509.47
2023-01-06T06:07:06.911Z,97508.50
2023-01-06T06:08:09.400Z,97509.47
2023-01-06T06:09:11.352Z,97514.03
2023-01-06T06:10:13.217Z,97517.44
2023-01-06T06:11:15.894Z,97516.63
2023-01-06T06:12:17.785Z,97522.81
2023-01-06T06:13:19.577Z,97520.53
2023-01-06T06:14:21.717Z,97517.97
2023-01-06T06:15:23.476Z,97514.75
2023-01-06T06:16:27.026Z,97518.78
2023-01-06T06:17:28.863Z,97510.81
2023-01-06T06:18:30.725Z,97514.88
2023-01-06T06:19:32.482Z,97512.09
2023-01-06T06:20:34.351Z,97507.53
2023-01-06T06:21:36.230Z,97514.53
2023-01-06T06:22:38.346Z,97512.59
2023-01-06T06:23:40.215Z,97515.97
2023-01-06T06:24:42.138Z,97508.81
2023-01-06T06:25:43.940Z,97511.44
2023-01-06T06:26:45.746Z,97521.66
2023-01-06T06:27:48.187Z,97519.22
2023-01-06T06:28:51.727Z,97526.22
2023-01-06T06:29:53.657Z,97517.25
2023-01-06T06:30:55.707Z,97517.25
2023-01-06T06:31:57.755Z,97517.09
2023-01-06T06:32:59.749Z,97517.09
2023-01-06T06:34:02.755Z,97519.53
2023-01-06T06:35:04.761Z,97521.94
2023-01-06T06:36:07.386Z,97518.91
2023-01-06T06:37:10.799Z,97515.03
2023-01-06T06:38:13.861Z,97515.34
2023-01-06T06:39:15.772Z,97521.34
2023-01-06T06:40:17.576Z,97515.34
2023-01-06T06:41:20.210Z,97518.59
2023-01-06T06:42:21.986Z,97515.03
2023-01-06T06:43:24.388Z,97521.00
2023-01-06T06:44:26.227Z,97514.19
2023-01-06T06:45:28.054Z,97515.34
2023-01-06T06:46:30.097Z,97515.50
2023-01-06T06:47:31.957Z,97513.53
2023-01-06T06:48:34.060Z,97518.59
2023-01-06T06:49:35.941Z,97515.34
2023-01-06T06:50:37.797Z,97516.97
2023-01-06T06:51:39.669Z,97522.81
2023-01-06T06:52:41.456Z,97519.56
2023-01-06T06:53:43.521Z,97523.78
2023-01-06T06:54:45.319Z,97515.34
2023-01-06T06:55:47.263Z,97517.94
2023-01-06T06:56:49.054Z,97514.53
2023-01-06T06:57:50.873Z,97519.91
2023-01-06T06:58:52.867Z,97521.69
2023-01-06T06:59:54.788Z,97520.41
2023-01-06T07:00:56.856Z,97517.66
2023-01-06T07:01:58.829Z,97517.66
2023-01-06T07:03:00.863Z,97517.66
2023-01-06T07:04:02.708Z,97519.41
2023-01-06T07:05:04.906Z,97519.41
2023-01-06T07:06:08.120Z,97514.06
2023-01-06T07:07:09.944Z,97525.09
2023-01-06T07:08:12.734Z,97518.09
2023-01-06T07:09:15.804Z,97514.69
2023-01-06T07:10:17.639Z,97510.16
2023-01-06T07:11:19.713Z,97516.16
2023-01-06T07:12:21.490Z,97513.53
2023-01-06T07:13:23.337Z,97515.34
2023-01-06T07:14:25.228Z,97517.94
2023-01-06T07:15:27.040Z,97518.75
2023-01-06T07:16:28.922Z,97510.16
2023-01-06T07:17:30.703Z,97515.19
2023-01-06T07:18:32.600Z,97521.34
2023-01-06T07:19:34.444Z,97524.78
2023-01-06T07:20:36.916Z,97514.19
2023-01-06T07:21:38.783Z,97520.22
2023-01-06T07:22:40.883Z,97506.22
2023-01-06T07:23:42.692Z,97513.06
2023-01-06T07:24:44.523Z,97519.06
2023-01-06T07:25:46.526Z,97515.03
2023-01-06T07:26:48.399Z,97507.72
2023-01-06T07:27:53.739Z,97510.50
2023-01-06T07:28:55.561Z,97512.47
2023-01-06T07:29:57.475Z,97510.66
2023-01-06T07:30:59.388Z,97512.47
2023-01-06T07:32:01.329Z,97511.47
2023-01-06T07:33:04.243Z,97508.06
2023-01-06T07:34:06.203Z,97510.50
2023-01-06T07:35:08.847Z,97510.50
2023-01-06T07:36:10.744Z,97515.06
2023-01-06T07:37:12.563Z,97507.25
2023-01-06T07:38:14.549Z,97507.91
2023-01-06T07:39:16.376Z,97510.31
2023-01-06T07:40:18.835Z,97508.53
2023-01-06T07:41:20.718Z,97510.94
2023-01-06T07:42:22.514Z,97511.78
2023-01-06T07:43:24.295Z,97516.78
2023-01-06T07:44:26.121Z,97515.03
2023-01-06T07:45:27.927Z,97502.81
2023-01-06T07:46:29.996Z,97509.97
2023-01-06T07:47:31.914Z,97511.94
2023-01-06T07:48:33.868Z,97508.53
2023-01-06T07:49:35.693Z,97511.78
2023-01-06T07:50:37.576Z,97511.78
2023-01-06T07:51:42.060Z,97505.59
2023-01-06T07:52:44.121Z,97508.19
2023-01-06T07:53:46.201Z,97513.38
2023-01-06T07:54:47.989Z,97503.16
2023-01-06T07:55:55.778Z,97509.34
2023-01-06T07:56:57.536Z,97511.47
2023-01-06T07:57:59.779Z,97510.50
2023-01-06T07:59:01.655Z,97508.69
2023-01-06T08:00:04.354Z,97507.25
2023-01-06T08:01:06.859Z,97509.53
2023-01-06T08:02:10.411Z,97511.97
2023-01-06T08:03:12.780Z,97511.50
2023-01-06T08:04:14.707Z,97511.81
2023-01-06T08:05:16.541Z,97512.03
2023-01-06T08:06:18.386Z,97508.25
2023-01-06T08:07:20.184Z,97512.81
2023-01-06T08:08:22.098Z,97515.91
2023-01-06T08:09:24.040Z,97515.06
2023-01-06T08:10:25.951Z,97521.91
2023-01-06T08:11:27.815Z,97520.44
2023-01-06T08:12:29.637Z,97512.66
2023-01-06T08:13:31.583Z,97524.81
2023-01-06T08:14:33.518Z,97515.91
2023-01-06T08:15:36.342Z,97520.25
2023-01-06T08:16:41.663Z,97514.25
2023-01-06T08:17:43.733Z,97510.06
2023-01-06T08:18:45.563Z,97508.25
2023-01-06T08:19:47.432Z,97510.88
2023-01-06T08:20:49.382Z,97513.31
2023-01-06T08:21:51.119Z,97518.97
2023-01-06T08:22:52.988Z,97516.22
2023-01-06T08:23:54.894Z,97513.63
2023-01-06T08:24:56.701Z,97519.47
2023-01-06T08:26:05.396Z,97509.22
2023-01-06T08:27:07.241Z,97508.44
2023-01-06T08:28:09.096Z,97511.81
2023-01-06T08:29:11.080Z,97512.81
2023-01-06T08:30:13.216Z,97516.56
2023-01-06T08:31:16.583Z,97512.34
2023-01-06T08:32:18.517Z,97507.81
2023-01-06T08:33:20.385Z,97507.97
2023-01-06T08:34:22.404Z,97513.19
2023-01-06T08:35:24.243Z,97509.13
2023-01-06T08:36:26.762Z,97508.50
2023-01-06T08:37:29.256Z,97509.94
2023-01-06T08:38:32.534Z,97506.03
2023-01-06T08:39:34.410Z,97508.31
2023-01-06T08:40:36.288Z,97499.06
2023-01-06T08:41:38.580Z,97510.25
2023-01-06T08:42:40.405Z,97512.22
2023-01-06T08:43:44.926Z,97516.25
2023-01-06T08:44:47.531Z,97509.91
2023-01-06T08:45:49.716Z,97508.94
2023-01-06T08:46:51.660Z,97505.19
2023-01-06T08:47:53.524Z,97504.38
2023-01-06T08:48:56.385Z,97510.22
2023-01-06T08:49:58.219Z,97514.25
2023-01-06T08:51:11.898Z,97517.84
2023-01-06T08:52:14.013Z,97509.41
2023-01-06T08:53:15.924Z,97514.44
2023-01-06T08:54:17.776Z,97513.16
2023-01-06T08:55:19.610Z,97519.34
2023-01-06T08:56:22.821Z,97519.34
2023-01-06T08:57:24.651Z,97511.88
2023-01-06T08:58:27.145Z,97512.69
2023-01-06T08:59:29.055Z,97516.91
2023-01-06T09:00:30.886Z,97516.91
2023-01-06T09:01:34.483Z,97508.13
2023-01-06T09:02:36.354Z,97518.97
2023-01-06T09:03:38.216Z,97521.56
2023-01-06T09:04:40.278Z,97513.63
2023-01-06T09:05:42.364Z,97519.28
2023-01-06T09:06:44.261Z,97517.97
2023-01-06T09:07:46.216Z,97517.19
2023-01-06T09:08:49.006Z,97509.53
2023-01-06T09:09:50.870Z,97517.97
2023-01-06T09:10:52.658Z,97513.25
2023-01-06T09:11:55.059Z,97519.25
2023-01-06T09:12:57.206Z,97514.88
2023-01-06T09:13:59.198Z,97520.69
2023-01-06T09:15:01.030Z,97523.13
2023-01-06T09:16:06.708Z,97518.75
2023-01-06T09:17:08.557Z,97525.75
2023-01-06T09:18:10.704Z,97515.34
2023-01-06T09:19:12.696Z,97519.91
2023-01-06T09:20:14.515Z,97520.91
2023-01-06T09:21:20.565Z,97520.69
2023-01-06T09:22:22.400Z,97520.69
2023-01-06T09:23:24.266Z,97516.97
2023-01-06T09:24:26.140Z,97526.22
2023-01-06T09:25:28.001Z,97521.81
2023-01-06T09:26:29.857Z,97517.63
2023-01-06T09:27:31.721Z,97515.03
2023-01-06T09:28:33.603Z,97511.78
2023-01-06T09:29:35.484Z,97510.94
2023-01-06T09:30:37.284Z,97508.69
2023-01-06T09:31:39.210Z,97512.47
2023-01-06T09:32:41.072Z,97507.25
2023-01-06T09:33:42.973Z,97512.75
2023-01-06T09:34:44.764Z,97506.22
2023-01-06T09:35:46.935Z,97503.94
2023-01-06T09:36:48.779Z,97500.34
2023-01-06T09:37:50.664Z,97503.59
2023-01-06T09:38:52.543Z,97498.88
2023-01-06T09:39:54.457Z,97495.91
2023-01-06T09:41:05.254Z,97498.97
2023-01-06T09:42:19.013Z,97505.13
2023-01-06T09:43:46.352Z,97501.84
2023-01-06T09:45:01.824Z,97501.78
2023-01-06T09:46:05.359Z,97498.69
2023-01-06T09:47:11.222Z,97488.59
2023-01-06T09:48:16.958Z,97493.41
2023-01-06T09:49:28.059Z,97490.66
2023-01-06T09:50:44.042Z,97481.06
2023-01-06T09:51:46.212Z,97480.56
2023-01-06T09:52:51.655Z,97480.88
2023-01-06T09:54:13.681Z,97483.31
2023-01-06T09:55:18.480Z,97484.22
2023-01-06T09:56:22.707Z,97477.88
2023-01-06T09:57:31.326Z,97479.16
2023-01-06T09:58:33.036Z,97475.66
2023-01-06T09:59:40.077Z,97471.06
2023-01-06T10:00:43.438Z,97462.75
2023-01-06T10:01:47.619Z,97466.97
2023-01-06T10:02:49.489Z,97464.19
2023-01-06T10:03:51.358Z,97462.69
2023-01-06T10:04:53.166Z,97462.94
2023-01-06T10:05:58.152Z,97461.59
2023-01-06T10:07:18.517Z,97462.22
2023-01-06T10:08:20.402Z,97466.09
2023-01-06T10:09:22.180Z,97462.34
2023-01-06T10:10:30.893Z,97456.50
2023-01-06T10:11:40.086Z,97452.09
2023-01-06T10:12:41.886Z,97452.91
2023-01-06T10:13:57.978Z,97450.31
2023-01-06T10:15:21.007Z,97447.69
2023-01-06T10:16:42.354Z,97453.72
2023-01-06T10:17:50.234Z,97454.25
2023-01-06T10:19:14.875Z,97446.91
2023-01-06T10:20:36.909Z,97445.91
2023-01-06T10:21:58.400Z,97444.94
2023-01-06T10:23:35.899Z,97436.94
2023-01-06T10:25:06.974Z,97439.19
2023-01-06T10:26:13.972Z,97426.53
2023-01-06T10:27:22.039Z,97422.59
2023-01-06T10:28:23.847Z,97423.03
2023-01-06T10:29:29.657Z,97428.88
2023-01-06T10:30:40.182Z,97417.63
2023-01-06T10:31:43.774Z,97412.63
2023-01-06T10:32:47.419Z,97410.03
2023-01-06T10:33:51.445Z,97413.03
2023-01-06T10:34:53.555Z,97411.63
2023-01-06T10:35:55.978Z,97412.16
2023-01-06T10:36:57.773Z,97406.34
2023-01-06T10:38:03.900Z,97411.34
2023-01-06T10:39:07.471Z,97403.34
2023-01-06T10:40:23.129Z,97403.81
2023-01-06T10:41:28.595Z,97399.84
2023-01-06T10:42:53.244Z,97401.47
2023-01-06T10:43:55.127Z,97399.50
2023-01-06T10:44:57.038Z,97398.69
2023-01-06T10:46:00.531Z,97402.91
2023-01-06T10:47:02.549Z,97400.94
2023-01-06T10:48:06.339Z,97401.38
2023-01-06T10:49:14.116Z,97396.25
2023-01-06T10:50:16.933Z,97400.44
2023-01-06T10:51:37.122Z,97397.66
2023-01-06T10:52:39.138Z,97393.25
2023-01-06T10:53:41.003Z,97392.28
2023-01-06T10:54:43.919Z,97394.72
2023-01-06T10:55:52.169Z,97392.13
2023-01-06T10:56:56.342Z,97396.94
2023-01-06T10:58:01.769Z,97391.38
2023-01-06T10:59:08.043Z,97386.19
2023-01-06T11:00:09.953Z,97385.16
2023-01-06T11:01:13.006Z,97378.34
2023-01-06T11:02:22.658Z,97376.56
2023-01-06T11:03:33.480Z,97375.56
2023-01-06T11:04:41.300Z,97372.13
2023-01-06T11:05:43.126Z,97377.19
2023-01-06T11:07:08.398Z,97374.84
2023-01-06T11:08:15.822Z,97373.66
2023-01-06T11:09:23.841Z,97367.44
2023-01-06T11:10:27.742Z,97375.25
2023-01-06T11:11:29.614Z,97368.91
2023-01-06T11:12:32.128Z,97370.31
2023-01-06T11:13:39.556Z,97370.94
2023-01-06T11:14:41.731Z,97368.97
2023-01-06T11:15:43.613Z,97367.94
2023-01-06T11:16:52.935Z,97367.78
2023-01-06T11:17:54.959Z,97371.78
2023-01-06T11:19:07.160Z,97371.19
2023-01-06T11:20:18.247Z,97364.81
2023-01-06T11:21:20.357Z,97368.84
2023-01-06T11:22:37.106Z,97369.47
2023-01-06T11:23:41.269Z,97366.28
2023-01-06T11:24:51.417Z,97366.09
2023-01-06T11:26:06.627Z,97365.13
2023-01-06T11:27:15.600Z,97364.75
2023-01-06T11:28:21.202Z,97357.09
2023-01-06T11:29:25.505Z,97350.13
2023-01-06T11:30:28.418Z,97358.56
2023-01-06T11:31:30.460Z,97355.75
2023-01-06T11:32:32.454Z,97359.34
2023-01-06T11:33:38.615Z,97355.94
2023-01-06T11:34:41.876Z,97351.34
2023-01-06T11:35:43.897Z,97355.56
2023-01-06T11:36:47.447Z,97352.16
2023-01-06T11:37:49.299Z,97357.97
2023-01-06T11:39:12.536Z,97355.00
2023-01-06T11:40:34.165Z,97351.59
2023-01-06T11:41:37.647Z,97356.63
2023-01-06T11:43:49.228Z,97361.44
2023-01-06T11:44:53.532Z,97351.63
2023-01-06T11:45:57.717Z,97359.09
2023-01-06T11:47:05.492Z,97350.84
2023-01-06T11:48:18.329Z,97351.00
2023-01-06T11:49:32.386Z,97342.22
2023-01-06T11:50:35.031Z,97341.78
2023-01-06T11:51:42.546Z,97338.97
2023-01-06T11:52:58.463Z,97344.38
2023-01-06T11:54:01.781Z,97340.72
2023-01-06T11:55:03.720Z,97335.72
2023-01-06T11:56:06.897Z,97337.69
2023-01-06T11:57:27.272Z,97334.88
2023-01-06T11:58:49.379Z,97336.06
2023-01-06T11:59:57.389Z,97337.88
2023-01-06T12:01:22.535Z,97335.28
2023-01-06T12:02:50.425Z,97336.25
2023-01-06T12:03:54.721Z,97336.25
2023-01-06T12:04:56.567Z,97337.25
2023-01-06T12:06:13.373Z,97338.84
2023-01-06T12:07:34.626Z,97336.06
2023-01-06T12:08:45.755Z,97333.28
2023-01-06T12:09:49.603Z,97331.28
2023-01-06T12:10:59.056Z,97332.09
2023-01-06T12:12:07.890Z,97331.13
2023-01-06T12:13:12.935Z,97338.53
2023-01-06T12:14:27.900Z,97337.56
2023-01-06T12:15:32.073Z,97337.19
2023-01-06T12:16:40.026Z,97339.44
2023-01-06T12:18:01.222Z,97337.22
2023-01-06T12:19:05.034Z,97330.03
2023-01-06T12:20:25.575Z,97335.22
2023-01-06T12:21:32.064Z,97334.25
2023-01-06T12:22:54.170Z,97337.03
2023-01-06T12:23:57.519Z,97325.25
2023-01-06T12:25:00.658Z,97332.09
2023-01-06T12:26:04.670Z,97335.66
2023-01-06T12:27:07.582Z,97337.47
2023-01-06T12:28:15.779Z,97333.06
2023-01-06T12:29:19.663Z,97333.50
2023-01-06T12:30:29.643Z,97338.16
2023-01-06T12:31:34.560Z,97336.00
2023-01-06T12:32:41.396Z,97337.22
2023-01-06T12:33:55.098Z,97336.91
2023-01-06T12:35:00.964Z,97335.78
2023-01-06T12:36:10.933Z,97334.44
2023-01-06T12:37:24.864Z,97337.94
2023-01-06T12:38:26.707Z,97341.38
2023-01-06T12:39:33.930Z,97336.59
2023-01-06T12:40:39.765Z,97336.44
2023-01-06T12:41:44.627Z,97331.47